Time;durP1;ratioP1;P1;durP2;ratioP2;P2;SDS_P1;SDS_P2;PMS_P1;PMS_P2;Temp;Humidity;BMP_temperature;BMP_pressure;BME280_temperature;BME280_humidity;BME280_pressure;Samples;Min_cycle;Max_cycle;Signal;HPM_P1;HPM_P2
2023/05/10 00:02:12;;;;;;;2.83;1.20;;;16.30;57.90;;;;;;4193820;28;20040;-50
2023/05/10 00:04:34;;;;;;;1.10;1.00;;;16.30;57.80;;;;;;4186697;28;20052;-50
2023/05/10 00:06:57;;;;;;;1.20;1.10;;;16.30;57.90;;;;;;4190290;28;20128;-51
2023/05/10 00:09:19;;;;;;;1.20;1.00;;;16.30;57.90;;;;;;4183697;28;20041;-47
2023/05/10 00:11:42;;;;;;;1.52;1.23;;;16.30;57.80;;;;;;4193248;28;20491;-47
2023/05/10 00:14:04;;;;;;;1.10;1.00;;;16.30;57.90;;;;;;4187961;28;20047;-48
2023/05/10 00:16:26;;;;;;;1.17;1.08;;;16.30;57.90;;;;;;4185587;28;20072;-51
2023/05/10 00:18:49;;;;;;;1.15;0.90;;;16.30;57.90;;;;;;4187520;28;20039;-45
2023/05/10 00:21:11;;;;;;;1.80;1.05;;;16.30;57.90;;;;;;4189686;28;20104;-49
2023/05/10 00:23:34;;;;;;;1.30;1.20;;;16.30;57.90;;;;;;4176105;28;20523;-48
2023/05/10 00:25:57;;;;;;;1.15;1.05;;;16.30;57.90;;;;;;4189294;28;20079;-50
2023/05/10 00:28:19;;;;;;;1.17;1.00;;;16.30;57.90;;;;;;4187624;28;20094;-48
2023/05/10 00:30:41;;;;;;;1.30;1.10;;;16.30;57.90;;;;;;4190382;28;20037;-48
2023/05/10 00:33:04;;;;;;;1.08;0.77;;;16.30;57.80;;;;;;4191417;28;20040;-47
2023/05/10 00:35:26;;;;;;;1.50;1.17;;;16.40;57.90;;;;;;4193841;28;20115;-49
2023/05/10 00:37:49;;;;;;;1.30;1.10;;;16.30;57.80;;;;;;4168550;28;20579;-47
2023/05/10 00:40:12;;;;;;;0.88;0.80;;;16.40;57.80;;;;;;4192841;28;20083;-48
2023/05/10 00:42:34;;;;;;;1.88;1.05;;;16.40;57.80;;;;;;4193590;28;20052;-48
2023/05/10 00:44:57;;;;;;;1.42;0.80;;;16.40;57.70;;;;;;4198402;28;20040;-47
2023/05/10 00:47:19;;;;;;;1.58;1.05;;;16.40;57.80;;;;;;4188794;28;20059;-48
2023/05/10 00:49:42;;;;;;;1.88;1.10;;;16.40;57.80;;;;;;4174109;28;20043;-49
2023/05/10 00:52:05;;;;;;;1.00;0.80;;;16.40;57.70;;;;;;4192031;28;20039;-49
2023/05/10 00:54:28;;;;;;;1.40;0.85;;;16.40;57.70;;;;;;4195221;28;20040;-49
2023/05/10 00:56:51;;;;;;;1.13;0.85;;;16.40;57.70;;;;;;4196870;28;20044;-47
2023/05/10 00:59:13;;;;;;;1.00;0.90;;;16.40;57.80;;;;;;4184584;28;20470;-51
2023/05/10 01:01:36;;;;;;;1.25;1.10;;;16.40;57.80;;;;;;4189303;28;20043;-49
2023/05/10 01:03:59;;;;;;;2.25;1.30;;;16.40;57.80;;;;;;4186516;28;20074;-46
2023/05/10 01:06:22;;;;;;;1.10;1.00;;;16.50;57.90;;;;;;4188780;28;20032;-46
2023/05/10 01:08:45;;;;;;;2.47;1.27;;;16.50;58.00;;;;;;4191839;28;20040;-47
2023/05/10 01:11:07;;;;;;;2.10;1.30;;;16.50;58.10;;;;;;4199385;28;20040;-46
2023/05/10 01:13:39;;;;;;;1.77;1.30;;;16.50;58.30;;;;;;4191025;28;20033;-47
2023/05/10 01:16:03;;;;;;;2.38;1.50;;;16.50;58.20;;;;;;4193732;28;20460;-48
2023/05/10 01:18:27;;;;;;;3.65;1.80;;;16.60;58.30;;;;;;4194374;28;20361;-48
2023/05/10 01:21:18;;;;;;;2.85;1.52;;;16.60;58.30;;;;;;4177898;28;20076;-46
2023/05/10 01:24:06;;;;;;;3.22;1.45;;;16.60;58.40;;;;;;4192314;28;20051;-49
2023/05/10 01:26:47;;;;;;;2.15;1.33;;;16.60;58.50;;;;;;4193698;28;20443;-49
2023/05/10 01:29:38;;;;;;;2.58;1.60;;;16.60;58.50;;;;;;4189889;28;20476;-51
2023/05/10 01:32:27;;;;;;;2.40;1.50;;;16.70;58.60;;;;;;4194611;28;20048;-54
2023/05/10 01:34:59;;;;;;;2.65;1.90;;;16.70;58.50;;;;;;4184286;28;20037;-52
2023/05/10 01:37:27;;;;;;;2.55;1.48;;;16.70;58.60;;;;;;4198938;28;20045;-47
2023/05/10 01:40:22;;;;;;;3.05;1.65;;;16.70;58.60;;;;;;4186444;28;20115;-47
2023/05/10 01:42:52;;;;;;;3.08;1.83;;;16.80;58.60;;;;;;4167456;28;20048;-47
2023/05/10 01:45:39;;;;;;;3.22;1.75;;;16.80;58.70;;;;;;4183565;28;20037;-50
2023/05/10 01:48:14;;;;;;;3.38;2.08;;;16.80;58.80;;;;;;4192445;28;20511;-48
2023/05/10 01:50:42;;;;;;;3.22;1.55;;;16.80;58.80;;;;;;4173016;28;20037;-48
2023/05/10 01:53:08;;;;;;;3.45;2.03;;;16.80;58.80;;;;;;4182072;28;20052;-49
2023/05/10 01:55:35;;;;;;;3.75;1.75;;;16.90;59.00;;;;;;4199206;28;20035;-49
2023/05/10 01:58:09;;;;;;;3.45;1.80;;;16.90;59.10;;;;;;4187929;28;20044;-49
2023/05/10 02:00:32;;;;;;;3.53;2.00;;;16.90;59.20;;;;;;4190384;28;20394;-47
2023/05/10 02:02:55;;;;;;;5.87;2.60;;;16.90;59.30;;;;;;4198918;28;20052;-49
2023/05/10 02:05:19;;;;;;;4.10;2.13;;;17.00;59.50;;;;;;4175479;28;20083;-46
2023/05/10 02:07:42;;;;;;;4.38;1.63;;;17.00;59.50;;;;;;4189068;28;20435;-48
2023/05/10 02:10:07;;;;;;;4.60;1.73;;;17.00;59.50;;;;;;4188510;28;20044;-50
2023/05/10 02:12:31;;;;;;;3.13;2.00;;;17.00;59.60;;;;;;4177624;28;20452;-47
2023/05/10 02:14:55;;;;;;;3.30;1.85;;;17.10;60.20;;;;;;4189045;28;20112;-51
2023/05/10 02:17:18;;;;;;;3.58;1.90;;;17.10;59.60;;;;;;4169553;28;20556;-49
2023/05/10 02:19:43;;;;;;;2.30;1.70;;;17.10;59.50;;;;;;4183197;28;20639;-51
2023/05/10 02:22:06;;;;;;;3.95;1.90;;;17.10;59.40;;;;;;4197672;28;20490;-50
2023/05/10 02:24:30;;;;;;;3.47;1.85;;;17.20;59.40;;;;;;4187987;28;20048;-51
2023/05/10 02:26:58;;;;;;;3.17;1.63;;;17.20;59.40;;;;;;4184337;28;20043;-47
2023/05/10 02:29:23;;;;;;;3.63;1.85;;;17.20;59.50;;;;;;4194519;28;20048;-45
2023/05/10 02:31:46;;;;;;;3.13;1.45;;;17.20;59.40;;;;;;4198641;28;20028;-48
2023/05/10 02:34:10;;;;;;;2.58;1.52;;;17.30;59.40;;;;;;4178224;28;20040;-48
2023/05/10 02:36:33;;;;;;;3.08;1.60;;;17.30;59.40;;;;;;4196604;28;20041;-52
2023/05/10 02:38:56;;;;;;;4.07;1.58;;;17.30;59.30;;;;;;4181742;28;20111;-52
2023/05/10 02:41:21;;;;;;;3.65;2.03;;;17.30;59.20;;;;;;4191021;28;20094;-47
2023/05/10 02:43:44;;;;;;;3.17;1.70;;;17.30;59.20;;;;;;4187430;28;20048;-48
2023/05/10 02:46:07;;;;;;;2.67;1.33;;;17.40;59.20;;;;;;4181860;28;20502;-52
2023/05/10 02:48:29;;;;;;;3.15;1.58;;;17.40;59.10;;;;;;4190685;28;20407;-52
2023/05/10 02:50:55;;;;;;;3.35;1.50;;;17.40;59.10;;;;;;4193118;28;20043;-51
2023/05/10 02:53:30;;;;;;;3.53;1.40;;;17.40;59.10;;;;;;4194209;28;20518;-50
2023/05/10 02:55:57;;;;;;;3.30;1.25;;;17.50;59.00;;;;;;4196797;28;20032;-49
2023/05/10 02:58:20;;;;;;;2.90;1.73;;;17.50;59.00;;;;;;4191635;28;20029;-49
2023/05/10 03:00:43;;;;;;;2.40;1.50;;;17.50;58.90;;;;;;4190517;28;20075;-52
2023/05/10 03:03:06;;;;;;;3.85;1.60;;;17.60;58.90;;;;;;4185117;28;20064;-51
2023/05/10 03:05:28;;;;;;;3.07;2.00;;;17.60;58.80;;;;;;4195944;28;20032;-48
2023/05/10 03:07:51;;;;;;;2.97;1.48;;;17.60;58.70;;;;;;4191557;28;20043;-51
2023/05/10 03:10:14;;;;;;;2.17;1.48;;;17.70;58.70;;;;;;4181084;28;20033;-51
2023/05/10 03:12:54;;;;;;;2.97;1.48;;;17.70;58.70;;;;;;4202368;28;20041;-47
2023/05/10 03:15:38;;;;;;;3.72;1.50;;;17.70;58.60;;;;;;4183181;28;20049;-48
2023/05/10 03:18:21;;;;;;;3.08;1.42;;;17.80;58.50;;;;;;4194582;28;20411;-49
2023/05/10 03:20:45;;;;;;;2.53;1.30;;;17.80;58.40;;;;;;4193824;28;20033;-50
2023/05/10 03:23:25;;;;;;;1.88;1.10;;;17.90;58.30;;;;;;4183197;28;20415;-46
2023/05/10 03:25:50;;;;;;;1.63;1.15;;;17.90;58.10;;;;;;4184988;28;20518;-49
2023/05/10 03:28:14;;;;;;;3.42;1.40;;;18.00;58.10;;;;;;4185662;28;20043;-49
2023/05/10 03:30:37;;;;;;;;;;;18.00;58.00;;;;;;4190425;28;20587;-49
2023/05/10 03:33:08;;;;;;;1.55;1.17;;;18.10;58.00;;;;;;4194932;28;20432;-51
2023/05/10 03:35:30;;;;;;;2.08;1.02;;;18.10;57.90;;;;;;4186416;28;20480;-52
2023/05/10 03:37:52;;;;;;;2.17;0.98;;;18.20;57.80;;;;;;4195576;28;20056;-49
2023/05/10 03:40:15;;;;;;;2.20;1.15;;;18.20;57.70;;;;;;4196226;28;20143;-51
2023/05/10 03:42:38;;;;;;;2.08;1.10;;;18.20;57.60;;;;;;4190289;28;20056;-50
2023/05/10 03:45:00;;;;;;;1.77;1.25;;;18.30;57.50;;;;;;4180165;28;20040;-51
2023/05/10 03:47:23;;;;;;;1.48;1.15;;;18.40;57.40;;;;;;4193944;28;20043;-48
2023/05/10 03:49:45;;;;;;;1.92;0.95;;;18.40;57.30;;;;;;4195605;28;20040;-49
2023/05/10 03:52:08;;;;;;;1.70;1.40;;;18.50;57.30;;;;;;4184304;28;20072;-47
2023/05/10 03:54:30;;;;;;;2.45;1.05;;;18.50;57.10;;;;;;4195981;28;20115;-47
2023/05/10 03:56:52;;;;;;;1.85;0.98;;;18.60;57.00;;;;;;4172212;28;20036;-48
2023/05/10 03:59:15;;;;;;;1.23;0.80;;;18.70;56.90;;;;;;4187415;28;20038;-51
2023/05/10 04:01:37;;;;;;;2.28;1.08;;;18.70;56.70;;;;;;4198899;28;20954;-47
2023/05/10 04:04:00;;;;;;;1.48;1.02;;;18.80;56.60;;;;;;4188625;28;20067;-50
2023/05/10 04:06:22;;;;;;;1.48;0.95;;;18.90;56.50;;;;;;4184023;28;20484;-50
2023/05/10 04:08:45;;;;;;;1.58;1.00;;;18.90;56.40;;;;;;4194122;28;20040;-49
2023/05/10 04:11:08;;;;;;;1.40;0.60;;;19.00;56.30;;;;;;4196086;28;20040;-49
2023/05/10 04:13:31;;;;;;;2.38;1.30;;;19.10;56.20;;;;;;4199458;28;20032;-54
2023/05/10 04:15:53;;;;;;;2.35;1.20;;;19.10;56.10;;;;;;4190988;28;20098;-52
2023/05/10 04:18:16;;;;;;;1.70;1.10;;;19.10;56.00;;;;;;4198661;28;20426;-49
2023/05/10 04:20:39;;;;;;;0.85;0.70;;;19.20;56.00;;;;;;4192159;28;20044;-50
2023/05/10 04:23:01;;;;;;;1.63;1.10;;;19.20;55.80;;;;;;4192653;28;20048;-50
2023/05/10 04:25:24;;;;;;;1.52;0.88;;;19.30;55.80;;;;;;4194218;28;20028;-50
2023/05/10 04:27:46;;;;;;;0.70;0.70;;;19.30;55.70;;;;;;4194928;28;20085;-51
2023/05/10 04:30:09;;;;;;;1.52;0.80;;;19.40;55.60;;;;;;4189505;28;20664;-52
2023/05/10 04:32:32;;;;;;;1.98;1.00;;;19.40;55.60;;;;;;4184163;28;20046;-47
2023/05/10 04:34:54;;;;;;;2.72;0.90;;;19.50;55.40;;;;;;4188830;28;20074;-49
2023/05/10 04:37:17;;;;;;;0.60;0.60;;;19.60;55.20;;;;;;4187486;28;20136;-51
2023/05/10 04:39:39;;;;;;;1.27;0.73;;;19.70;55.10;;;;;;4186866;28;20047;-52
2023/05/10 04:42:03;;;;;;;0.93;0.63;;;19.70;54.90;;;;;;4183769;28;20490;-52
2023/05/10 04:44:25;;;;;;;1.58;0.80;;;19.80;54.80;;;;;;4197484;28;20037;-54
2023/05/10 04:46:48;;;;;;;1.33;0.65;;;19.90;54.70;;;;;;4186805;28;20033;-47
2023/05/10 04:49:10;;;;;;;1.02;0.80;;;20.00;54.70;;;;;;4184682;28;20427;-51
2023/05/10 04:51:33;;;;;;;0.80;0.60;;;20.00;54.40;;;;;;4194006;28;20081;-49
2023/05/10 04:53:55;;;;;;;1.33;0.70;;;20.10;54.40;;;;;;4193597;28;20037;-53
2023/05/10 04:56:17;;;;;;;0.85;0.60;;;20.10;54.20;;;;;;4186492;28;20144;-47
2023/05/10 04:58:40;;;;;;;0.77;0.50;;;20.20;54.30;;;;;;4186856;28;20242;-50
2023/05/10 05:01:10;;;;;;;1.67;0.57;;;20.20;54.10;;;;;;4187701;28;20048;-49
2023/05/10 05:03:33;;;;;;;1.13;0.70;;;20.30;54.00;;;;;;4190326;28;20550;-48
2023/05/10 05:05:55;;;;;;;0.80;0.70;;;20.30;54.00;;;;;;4188133;28;20033;-49
2023/05/10 05:08:18;;;;;;;0.95;0.70;;;20.40;53.90;;;;;;4190646;28;20558;-49
2023/05/10 05:10:40;;;;;;;1.23;0.68;;;20.40;53.90;;;;;;4189936;28;20123;-49
2023/05/10 05:13:02;;;;;;;1.13;0.85;;;20.40;53.80;;;;;;4175929;28;20044;-51
2023/05/10 05:15:25;;;;;;;1.75;1.00;;;20.50;53.80;;;;;;4189341;28;20696;-50
2023/05/10 05:17:47;;;;;;;1.83;1.15;;;20.50;53.70;;;;;;4182120;28;20392;-49
2023/05/10 05:20:10;;;;;;;3.75;1.80;;;20.50;53.70;;;;;;4194438;28;20068;-51
2023/05/10 05:22:33;;;;;;;3.03;1.88;;;20.50;53.60;;;;;;4192109;28;20052;-52
2023/05/10 05:24:58;;;;;;;2.75;1.83;;;20.60;53.70;;;;;;4190232;28;20123;-48
2023/05/10 05:27:23;;;;;;;3.33;2.03;;;20.50;53.50;;;;;;4185541;28;20055;-48
2023/05/10 05:29:46;;;;;;;3.50;2.30;;;20.50;53.40;;;;;;4186733;28;20044;-50
2023/05/10 05:32:08;;;;;;;6.72;2.40;;;20.50;53.40;;;;;;4194331;28;20476;-48
2023/05/10 05:34:31;;;;;;;3.50;2.10;;;20.50;53.40;;;;;;4186042;28;20036;-46
2023/05/10 05:36:53;;;;;;;4.15;2.10;;;20.60;53.80;;;;;;4189562;28;20175;-46
2023/05/10 05:39:16;;;;;;;3.25;2.08;;;20.50;53.40;;;;;;4195272;28;20501;-48
2023/05/10 05:41:38;;;;;;;4.03;2.40;;;20.50;53.40;;;;;;4190295;28;20044;-48
2023/05/10 05:44:01;;;;;;;3.08;2.03;;;20.50;53.60;;;;;;4198055;28;20075;-49
2023/05/10 05:46:23;;;;;;;4.38;1.95;;;20.40;53.60;;;;;;4181321;28;20503;-49
2023/05/10 05:48:45;;;;;;;3.63;2.10;;;20.40;53.70;;;;;;4191846;28;20111;-45
2023/05/10 05:51:08;;;;;;;2.63;1.90;;;20.40;53.80;;;;;;4176259;28;20083;-44
2023/05/10 05:53:30;;;;;;;3.08;2.10;;;20.40;54.30;;;;;;4194821;28;20106;-48
2023/05/10 05:55:54;;;;;;;3.58;1.92;;;20.30;54.00;;;;;;4191809;28;20502;-47
2023/05/10 05:58:16;;;;;;;2.60;1.67;;;20.30;54.00;;;;;;4194016;28;20047;-47
2023/05/10 06:00:38;;;;;;;4.15;2.10;;;20.20;54.10;;;;;;4190727;28;20029;-46
2023/05/10 06:03:01;;;;;;;3.28;1.88;;;20.20;54.20;;;;;;4184021;28;20052;-50
2023/05/10 06:05:23;;;;;;;2.65;1.60;;;20.20;54.20;;;;;;4191038;28;20450;-52
2023/05/10 06:07:46;;;;;;;2.58;1.75;;;20.20;54.30;;;;;;4188476;28;20498;-47
2023/05/10 06:10:09;;;;;;;2.88;1.60;;;20.20;55.10;;;;;;4177051;28;20040;-51
2023/05/10 06:12:31;;;;;;;3.67;1.90;;;20.20;54.50;;;;;;4192082;28;20093;-48
2023/05/10 06:14:54;;;;;;;3.05;1.70;;;20.20;54.40;;;;;;4192701;28;20055;-47
2023/05/10 06:17:16;;;;;;;2.42;1.35;;;20.20;54.50;;;;;;4191100;28;20032;-49
2023/05/10 06:19:38;;;;;;;3.80;1.70;;;20.20;54.40;;;;;;4183553;28;20064;-47
2023/05/10 06:22:01;;;;;;;1.58;1.20;;;20.20;54.50;;;;;;4189577;28;20045;-51
2023/05/10 06:24:23;;;;;;;3.15;1.60;;;20.20;54.40;;;;;;4193892;28;20039;-49
2023/05/10 06:26:46;;;;;;;2.60;1.60;;;20.20;54.50;;;;;;4189336;28;20040;-48
2023/05/10 06:29:08;;;;;;;2.72;1.25;;;20.30;54.40;;;;;;4190912;28;20041;-49
2023/05/10 06:31:30;;;;;;;1.77;1.33;;;20.30;54.30;;;;;;4187453;28;20041;-49
2023/05/10 06:33:53;;;;;;;2.55;1.65;;;20.40;54.10;;;;;;4199936;28;20036;-48
2023/05/10 06:36:15;;;;;;;3.00;1.40;;;20.70;53.30;;;;;;4190279;28;20040;-47
2023/05/10 06:38:37;;;;;;;1.83;1.20;;;21.00;52.40;;;;;;4195364;28;20439;-47
2023/05/10 06:41:00;;;;;;;1.88;1.45;;;21.10;52.20;;;;;;4190882;28;20071;-48
2023/05/10 06:43:24;;;;;;;2.38;1.40;;;21.00;52.10;;;;;;4199722;28;20404;-46
2023/05/10 06:45:46;;;;;;;2.08;1.40;;;21.20;52.10;;;;;;4183092;28;20059;-52
2023/05/10 06:48:09;;;;;;;2.22;1.20;;;21.60;50.80;;;;;;4197964;28;20043;-52
2023/05/10 06:50:31;;;;;;;1.92;1.08;;;22.00;49.70;;;;;;4194284;28;20068;-49
2023/05/10 06:52:55;;;;;;;3.78;1.38;;;21.80;50.00;;;;;;4189721;28;20119;-50
2023/05/10 06:55:17;;;;;;;1.80;1.10;;;21.40;50.80;;;;;;4184149;28;20044;-50
2023/05/10 06:57:40;;;;;;;1.92;0.90;;;21.10;51.70;;;;;;4183165;28;20053;-49
2023/05/10 07:00:06;;;;;;;2.40;1.15;;;20.80;52.20;;;;;;4195738;28;20036;-51
2023/05/10 07:02:28;;;;;;;3.00;1.25;;;20.60;52.70;;;;;;4192232;28;20052;-50
2023/05/10 07:04:51;;;;;;;2.17;1.25;;;20.40;53.10;;;;;;4191431;28;20292;-50
2023/05/10 07:07:15;;;;;;;1.45;1.10;;;20.30;53.40;;;;;;4194593;28;20036;-50
2023/05/10 07:09:37;;;;;;;2.85;1.10;;;20.20;53.50;;;;;;4184774;28;20078;-50
2023/05/10 07:12:01;;;;;;;1.73;0.88;;;20.10;53.80;;;;;;4180615;28;20565;-51
2023/05/10 07:14:23;;;;;;;;;;;20.10;54.00;;;;;;4189154;28;20381;-50
2023/05/10 07:16:45;;;;;;;1.98;1.05;;;20.00;54.00;;;;;;4182650;28;20003;-52
2023/05/10 07:19:08;;;;;;;1.38;1.00;;;20.00;54.30;;;;;;4191946;28;20050;-50
2023/05/10 07:21:31;;;;;;;1.80;1.00;;;19.90;54.40;;;;;;4188731;28;20496;-53
2023/05/10 07:23:53;;;;;;;1.65;0.93;;;19.90;54.40;;;;;;4189089;28;20048;-50
2023/05/10 07:26:16;;;;;;;2.65;1.17;;;19.80;54.70;;;;;;4186639;28;20603;-50
2023/05/10 07:28:38;;;;;;;1.63;1.00;;;19.80;54.70;;;;;;4191737;28;20044;-50
2023/05/10 07:31:01;;;;;;;2.63;0.75;;;19.80;54.90;;;;;;4191720;28;20116;-53
2023/05/10 07:33:23;;;;;;;0.90;0.80;;;19.70;54.80;;;;;;4188583;28;20036;-50
2023/05/10 07:35:46;;;;;;;1.45;1.00;;;19.70;54.90;;;;;;4188782;28;20091;-48
2023/05/10 07:38:10;;;;;;;1.60;1.00;;;19.70;55.00;;;;;;4193851;28;20044;-52
2023/05/10 07:40:33;;;;;;;1.40;1.00;;;19.70;55.10;;;;;;4197686;28;20491;-51
2023/05/10 07:43:02;;;;;;;;;;;19.70;55.20;;;;;;4152050;28;20046;-64
2023/05/10 07:45:25;;;;;;;2.10;0.85;;;19.60;55.20;;;;;;4149583;28;19921;-61
2023/05/10 07:47:47;;;;;;;2.17;1.00;;;19.60;55.20;;;;;;4154625;28;20554;-61
2023/05/10 07:50:10;;;;;;;1.35;0.70;;;19.60;55.30;;;;;;4155191;28;20053;-61
2023/05/10 07:52:32;;;;;;;1.58;0.82;;;19.60;55.90;;;;;;4151542;28;20038;-62
2023/05/10 07:54:56;;;;;;;2.42;1.38;;;19.60;55.30;;;;;;4151682;28;20499;-63
2023/05/10 07:57:19;;;;;;;1.45;0.73;;;19.50;55.30;;;;;;4142269;28;20144;-62
2023/05/10 07:59:41;;;;;;;2.88;1.20;;;19.50;55.30;;;;;;4155599;28;20049;-61
2023/05/10 08:02:04;;;;;;;1.38;0.80;;;19.50;55.30;;;;;;4154422;28;20079;-63
2023/05/10 08:04:27;;;;;;;3.28;1.10;;;19.50;55.30;;;;;;4130723;28;20146;-62
2023/05/10 08:06:49;;;;;;;2.38;1.33;;;19.50;55.30;;;;;;4134547;28;20079;-62
2023/05/10 08:09:12;;;;;;;2.28;1.10;;;19.50;55.30;;;;;;4118556;28;20043;-61
2023/05/10 08:11:35;;;;;;;3.78;1.38;;;19.50;55.40;;;;;;4120790;28;20514;-61
2023/05/10 08:13:57;;;;;;;5.97;1.80;;;19.50;55.40;;;;;;4141026;28;20807;-63
2023/05/10 08:16:20;;;;;;;4.68;1.98;;;19.50;55.70;;;;;;4140655;28;20160;-63
2023/05/10 08:18:43;;;;;;;5.53;1.80;;;19.50;56.10;;;;;;4137796;28;20519;-63
2023/05/10 08:21:06;;;;;;;4.32;2.30;;;19.50;56.00;;;;;;4126735;28;20042;-63
2023/05/10 08:23:28;;;;;;;3.45;1.50;;;19.50;56.00;;;;;;4142629;28;20088;-63
2023/05/10 08:25:51;;;;;;;3.50;1.50;;;19.50;55.90;;;;;;4137062;28;20042;-63
2023/05/10 08:28:13;;;;;;;3.58;1.88;;;19.40;55.80;;;;;;4139770;28;20351;-63
2023/05/10 08:30:35;;;;;;;4.80;2.08;;;19.40;55.90;;;;;;4137791;28;20069;-63
2023/05/10 08:32:58;;;;;;;4.45;2.10;;;19.40;56.00;;;;;;4132072;28;20517;-63
2023/05/10 08:35:20;;;;;;;3.28;1.98;;;19.40;56.10;;;;;;4135669;28;20470;-62
2023/05/10 08:37:43;;;;;;;5.57;2.58;;;19.40;56.10;;;;;;4129422;28;20042;-64
2023/05/10 08:40:06;;;;;;;6.60;3.10;;;19.40;56.20;;;;;;4145443;28;20045;-61
2023/05/10 08:42:33;;;;;;;5.38;2.45;;;19.40;56.50;;;;;;4140158;28;20046;-61
2023/05/10 08:44:57;;;;;;;8.80;2.25;;;19.40;56.80;;;;;;4136175;28;20034;-60
2023/05/10 08:47:19;;;;;;;;;;;19.40;57.10;;;;;;4140038;28;20063;-60
2023/05/10 08:49:43;;;;;;;4.60;2.30;;;19.40;57.30;;;;;;4134803;28;19956;-65
2023/05/10 08:52:07;;;;;;;10.95;2.20;;;19.40;57.60;;;;;;4132573;28;20040;-62
2023/05/10 08:54:31;;;;;;;4.85;1.95;;;19.40;57.90;;;;;;4144564;28;20482;-67
2023/05/10 08:56:54;;;;;;;3.40;1.60;;;19.40;58.00;;;;;;4141060;28;20041;-69
2023/05/10 08:59:16;;;;;;;4.07;1.83;;;19.40;58.20;;;;;;4121551;28;20034;-63
2023/05/10 09:01:40;;;;;;;5.47;1.90;;;19.40;58.20;;;;;;4141220;28;20046;-63
2023/05/10 09:04:04;;;;;;;3.90;1.80;;;19.40;58.30;;;;;;4141999;28;20671;-63
2023/05/10 09:06:26;;;;;;;6.68;1.98;;;19.50;58.60;;;;;;4138183;28;20116;-62
2023/05/10 09:08:49;;;;;;;4.32;1.55;;;19.40;58.50;;;;;;4141120;28;20563;-63
2023/05/10 09:11:13;;;;;;;5.30;2.03;;;19.50;58.70;;;;;;4139688;28;20158;-64
2023/05/10 09:13:36;;;;;;;4.40;1.35;;;19.50;58.80;;;;;;4139613;28;20060;-63
2023/05/10 09:16:00;;;;;;;3.00;1.50;;;19.40;58.80;;;;;;4139936;28;20438;-64
2023/05/10 09:18:22;;;;;;;3.05;1.50;;;19.50;59.00;;;;;;4146517;28;20116;-63
2023/05/10 09:20:45;;;;;;;2.17;1.45;;;19.50;58.90;;;;;;4137706;28;20446;-62
2023/05/10 09:23:07;;;;;;;5.95;1.67;;;19.50;59.10;;;;;;4136222;28;20061;-68
2023/05/10 09:25:30;;;;;;;8.35;2.10;;;19.50;59.10;;;;;;4137399;28;20034;-66
2023/05/10 09:27:53;;;;;;;6.80;1.83;;;19.60;59.60;;;;;;4134074;28;20425;-68
2023/05/10 09:30:33;;;;;;;5.65;1.65;;;19.50;59.50;;;;;;4137082;28;20030;-59
2023/05/10 09:32:57;;;;;;;8.63;2.58;;;19.60;59.60;;;;;;4119655;28;20034;-62
2023/05/10 09:35:20;;;;;;;;;;;19.60;59.40;;;;;;4139693;28;20038;-59
2023/05/10 09:37:46;;;;;;;8.75;2.75;;;19.60;59.30;;;;;;4142195;28;19917;-60
2023/05/10 09:40:19;;;;;;;13.73;2.63;;;19.70;59.40;;;;;;4136494;28;20049;-62
2023/05/10 09:42:53;;;;;;;15.50;2.63;;;19.60;59.10;;;;;;4137700;28;20078;-58
2023/05/10 09:45:16;;;;;;;12.52;2.22;;;19.70;58.80;;;;;;4130132;28;20069;-63
2023/05/10 09:47:38;;;;;;;17.80;2.70;;;19.60;59.10;;;;;;4139701;28;20125;-65
2023/05/10 09:50:04;;;;;;;9.63;2.40;;;19.70;59.30;;;;;;4143433;28;20041;-60
2023/05/10 09:52:27;;;;;;;11.35;2.13;;;19.70;59.30;;;;;;4144146;28;20088;-62
2023/05/10 09:54:55;;;;;;;8.98;2.13;;;19.70;59.00;;;;;;4117657;28;20026;-60
2023/05/10 09:57:25;;;;;;;6.85;1.90;;;19.70;58.90;;;;;;4126681;28;20441;-63
2023/05/10 09:59:49;;;;;;;4.82;1.85;;;19.70;59.60;;;;;;4142001;28;20038;-60
2023/05/10 10:02:12;;;;;;;6.40;1.60;;;19.70;59.00;;;;;;4135731;28;20679;-60
2023/05/10 10:04:40;;;;;;;4.65;1.70;;;19.80;59.00;;;;;;4142330;28;20424;-58
2023/05/10 10:07:09;;;;;;;4.88;1.73;;;19.80;59.20;;;;;;4138835;22;20065;-74
2023/05/10 10:09:33;;;;;;;19.75;3.40;;;19.80;59.10;;;;;;4109419;28;20055;-72
2023/05/10 10:11:56;;;;;;;18.05;3.53;;;19.90;59.20;;;;;;4130621;28;20117;-76
2023/05/10 10:14:20;;;;;;;11.63;2.35;;;19.90;59.20;;;;;;4114393;28;20436;-75
2023/05/10 10:16:42;;;;;;;7.35;1.65;;;19.90;59.10;;;;;;4122499;28;20038;-76
2023/05/10 10:19:06;;;;;;;9.20;2.05;;;19.90;59.10;;;;;;4126138;28;20038;-72
2023/05/10 10:21:29;;;;;;;4.80;1.70;;;19.90;59.00;;;;;;4121751;28;20085;-72
2023/05/10 10:23:52;;;;;;;6.45;1.52;;;20.00;59.00;;;;;;4127877;28;20045;-76
2023/05/10 10:29:40;;;;;;;4.43;1.10;;;20.00;59.00;;;;;;4114264;28;20066;-76
2023/05/10 10:32:38;;;;;;;2.17;1.00;;;20.00;59.70;;;;;;4117052;28;20397;-77
2023/05/10 10:35:01;;;;;;;4.45;1.10;;;20.00;59.00;;;;;;4097511;28;20121;-74
2023/05/10 10:37:24;;;;;;;3.38;0.70;;;20.10;59.70;;;;;;4105748;28;20046;-71
2023/05/10 10:39:50;;;;;;;3.10;0.80;;;20.10;59.20;;;;;;4121136;28;20107;-73
2023/05/10 10:42:12;;;;;;;2.75;1.00;;;20.10;59.40;;;;;;4112316;28;20142;-74
2023/05/10 10:44:38;;;;;;;1.42;0.60;;;20.10;59.40;;;;;;4121033;28;20065;-74
2023/05/10 10:47:22;;;;;;;3.55;1.00;;;20.10;59.50;;;;;;4131223;28;20052;-74
2023/05/10 10:50:03;;;;;;;2.40;0.80;;;20.10;59.70;;;;;;4137257;28;20151;-73
2023/05/10 10:52:35;;;;;;;2.38;1.30;;;20.10;59.70;;;;;;4106955;28;20035;-76
2023/05/10 10:55:09;;;;;;;2.88;0.73;;;20.10;59.80;;;;;;4130335;28;20201;-71
2023/05/10 10:57:46;;;;;;;4.05;0.75;;;20.10;59.80;;;;;;4127459;28;20121;-76
2023/05/10 11:00:24;;;;;;;4.57;1.05;;;20.10;59.90;;;;;;4122738;28;20089;-72
2023/05/10 11:02:51;;;;;;;8.65;1.15;;;20.10;59.80;;;;;;4123639;28;20077;-74
2023/05/10 11:05:45;;;;;;;1.83;1.00;;;20.10;60.00;;;;;;4117437;28;20540;-73
2023/05/10 11:08:29;;;;;;;2.00;0.63;;;20.20;59.90;;;;;;4130538;28;20208;-74
2023/05/10 11:11:03;;;;;;;3.10;1.00;;;20.20;59.80;;;;;;4133877;28;20474;-73
2023/05/10 11:16:28;;;;;;;2.65;0.90;;;20.20;59.70;;;;;;4135203;28;20372;-80
2023/05/10 11:18:56;;;;;;;4.43;1.73;;;20.30;59.50;;;;;;4118168;28;20046;-78
2023/05/10 11:21:19;;;;;;;3.55;1.85;;;20.30;58.50;;;;;;4133551;28;20069;-77
2023/05/10 11:23:47;;;;;;;3.42;1.88;;;20.20;57.90;;;;;;4116811;28;20054;-77
2023/05/10 11:26:10;;;;;;;3.60;1.40;;;20.20;57.60;;;;;;4130581;28;20038;-77
2023/05/10 11:28:33;;;;;;;2.60;1.70;;;20.20;57.40;;;;;;4124628;28;20463;-79
2023/05/10 11:30:55;;;;;;;3.22;1.52;;;20.10;57.30;;;;;;4131618;28;20177;-78
2023/05/10 11:33:42;;;;;;;2.15;1.48;;;20.10;57.30;;;;;;4124934;28;20551;-79
2023/05/10 11:36:35;;;;;;;;;;;;;;;;;;;;;
2023/05/10 11:38:57;;;;;;;4.13;1.40;;;20.00;57.40;;;;;;4128746;28;20042;-73
2023/05/10 11:41:24;;;;;;;2.72;1.63;;;20.00;58.40;;;;;;4146352;28;20095;-76
2023/05/10 11:43:54;;;;;;;4.03;1.30;;;20.00;58.70;;;;;;4133273;28;20100;-74
2023/05/10 11:46:21;;;;;;;3.97;1.50;;;20.00;58.90;;;;;;4140532;28;20042;-77
2023/05/10 11:48:44;;;;;;;6.40;1.33;;;19.90;59.20;;;;;;4132822;28;20487;-76
2023/05/10 11:51:08;;;;;;;5.55;2.17;;;19.90;59.40;;;;;;4136666;28;20073;-76
2023/05/10 11:53:34;;;;;;;2.33;1.52;;;19.90;60.00;;;;;;4127792;28;20127;-76
2023/05/10 11:56:08;;;;;;;4.18;1.45;;;19.90;60.00;;;;;;4136320;28;20153;-77
2023/05/10 11:58:35;;;;;;;4.22;1.17;;;19.90;60.20;;;;;;4123596;28;20100;-78
2023/05/10 12:04:17;;;;;;;3.75;1.50;;;20.00;60.00;;;;;;4121878;28;20535;-73
2023/05/10 12:06:41;;;;;;;4.13;1.98;;;19.90;59.90;;;;;;4116861;28;20113;-80
2023/05/10 12:09:07;;;;;;;2.78;1.52;;;19.90;60.00;;;;;;4135411;28;20160;-75
2023/05/10 12:11:30;;;;;;;4.28;1.20;;;19.90;60.00;;;;;;4116069;28;20552;-73
2023/05/10 12:13:53;;;;;;;3.83;1.20;;;19.90;60.00;;;;;;4114577;28;20046;-74
2023/05/10 12:16:25;;;;;;;4.82;1.30;;;19.90;60.00;;;;;;4122218;28;20124;-75
2023/05/10 12:18:59;;;;;;;2.97;1.20;;;19.90;60.30;;;;;;4133469;28;20054;-79
2023/05/10 12:21:22;;;;;;;1.90;1.08;;;19.90;60.30;;;;;;4126389;28;20036;-75
2023/05/10 12:23:47;;;;;;;2.70;1.40;;;19.90;60.40;;;;;;4129078;28;20089;-76
2023/05/10 12:26:10;;;;;;;2.85;1.20;;;19.90;60.40;;;;;;4128902;28;20042;-75
2023/05/10 12:28:33;;;;;;;3.58;1.20;;;19.90;60.30;;;;;;4127083;28;20053;-73
2023/05/10 12:30:57;;;;;;;3.27;1.63;;;19.90;60.40;;;;;;4115165;28;20042;-73
2023/05/10 12:33:20;;;;;;;;;;;19.90;60.50;;;;;;4134636;28;20456;-72
2023/05/10 12:35:48;;;;;;;3.30;1.25;;;19.90;60.30;;;;;;4121796;28;20286;-74
2023/05/10 12:38:30;;;;;;;3.08;1.33;;;19.90;60.30;;;;;;4132855;28;20049;-72
2023/05/10 12:40:53;;;;;;;2.90;1.10;;;19.90;60.30;;;;;;4119931;28;20073;-75
2023/05/10 12:43:36;;;;;;;3.08;1.02;;;19.90;60.30;;;;;;4138603;28;20038;-77
2023/05/10 12:45:58;;;;;;;3.65;1.30;;;19.90;60.30;;;;;;4110571;28;20035;-76
2023/05/10 12:48:21;;;;;;;3.28;1.33;;;19.80;60.30;;;;;;4132783;28;20034;-76
2023/05/10 12:50:44;;;;;;;1.98;1.10;;;19.90;60.40;;;;;;4132688;28;20563;-74